ENSB Airport Information

Runway Information
Runway 10 Length 7608 ft width 148 ft
Elevation 63 ft Threshold 199 ft Heading 105
Runway 28 Length 7608 ft Width 148 ft
Elevation 73 ft Threshold 395 ft Heading 285
Airport Frequencies
Type AFIS Name INFO Frequency 118.1 MHZ
Type AFIS Name INFO Frequency 884 MHZ
Airport Navaids
Airport Weather Information & NOTAM
ADDS - METARS form results

(0812 UTC 22 May 2018)
 
METAR text: ENSB 220750Z VRB02KT 9999 -SN FEW015 BKN035 M01/M04 Q1007 RMK WIND 1400FT 06003KT
Conditions at: ENSB (SVALBARD/LONGYEA, NO) observed 0750 UTC 22 May 2018
Temperature: -1.0°C (30°F)
Dewpoint: -4.0°C (25°F) [RH = 80%]
Pressure (altimeter): 29.73 inches Hg (1007.0 mb)
Winds: variable direction winds at 2 MPH (2 knots; 1.0 m/s)
Visibility: 6 or more miles (10+ km)
Ceiling: 3500 feet AGL
Clouds: few clouds at 1500 feet AGL
broken clouds at 3500 feet AGL
Weather: -SN  (light snow)

METAR text: ENSB 220720Z 00000KT 9999 -SN FEW015 BKN025 M01/M04 Q1007 NOSIG RMK WIND 1400FT 07003KT
Conditions at: ENSB (SVALBARD/LONGYEA, NO) observed 0720 UTC 22 May 2018
Temperature: -1.0°C (30°F)
Dewpoint: -4.0°C (25°F) [RH = 80%]
Pressure (altimeter): 29.73 inches Hg (1007.0 mb)
Winds: calm
Visibility: 6 or more miles (10+ km)
Ceiling: 2500 feet AGL
Clouds: few clouds at 1500 feet AGL
broken clouds at 2500 feet AGL
Weather: -SN  (light snow)